Time;durP1;ratioP1;P1;durP2;ratioP2;P2;SDS_P1;SDS_P2;PMS_P1;PMS_P2;Temp;Humidity;BMP_temperature;BMP_pressure;BME280_temperature;BME280_humidity;BME280_pressure;Samples;Min_cycle;Max_cycle;Signal;HPM_P1;HPM_P2
2024/01/25 00:00:11;;;;;;;32.15;6.43;;;7.20;99.90;;;;;;5037103;28;20041;-59
2024/01/25 00:02:38;;;;;;;33.28;6.10;;;7.20;99.90;;;;;;5036972;28;20091;-59
2024/01/25 00:05:04;;;;;;;27.88;5.97;;;7.20;99.90;;;;;;5036589;28;20072;-59
2024/01/25 00:07:31;;;;;;;28.63;5.63;;;7.20;99.90;;;;;;5036992;28;20116;-59
2024/01/25 00:09:58;;;;;;;35.88;5.70;;;7.20;99.90;;;;;;5036702;28;20132;-58
2024/01/25 00:12:25;;;;;;;31.90;5.90;;;7.20;99.90;;;;;;5036629;28;20042;-59
2024/01/25 00:14:52;;;;;;;39.55;6.90;;;7.10;99.90;;;;;;5036374;28;20081;-59
2024/01/25 00:17:19;;;;;;;29.77;5.72;;;7.10;99.90;;;;;;5036490;28;20049;-59
2024/01/25 00:19:46;;;;;;;28.35;5.63;;;7.10;99.90;;;;;;5036441;28;20034;-59
2024/01/25 00:22:13;;;;;;;26.50;5.63;;;7.10;99.90;;;;;;5036684;28;20041;-58
2024/01/25 00:24:40;;;;;;;27.92;5.53;;;7.10;99.90;;;;;;5036396;28;20515;-58
2024/01/25 00:27:07;;;;;;;33.33;7.22;;;7.10;99.90;;;;;;5036289;28;20117;-59
2024/01/25 00:29:33;;;;;;;29.75;5.80;;;7.00;99.90;;;;;;5036310;28;20380;-59
2024/01/25 00:32:00;;;;;;;28.55;5.45;;;7.00;99.90;;;;;;5036353;28;20037;-59
2024/01/25 00:34:27;;;;;;;26.52;5.47;;;7.00;99.90;;;;;;5034796;28;20053;-57
2024/01/25 00:36:54;;;;;;;25.38;5.65;;;7.00;99.90;;;;;;5036435;28;20041;-59
2024/01/25 00:39:21;;;;;;;27.95;5.80;;;7.00;99.90;;;;;;5036259;28;20072;-59
2024/01/25 00:41:48;;;;;;;32.30;5.35;;;6.90;99.90;;;;;;5036006;28;20049;-59
2024/01/25 00:44:15;;;;;;;25.85;5.60;;;6.90;99.90;;;;;;5036162;28;20073;-58
2024/01/25 00:46:42;;;;;;;31.05;5.70;;;6.90;99.90;;;;;;5036305;28;20417;-59
2024/01/25 00:49:10;;;;;;;36.13;7.50;;;6.90;99.90;;;;;;5036001;28;20091;-58
2024/01/25 00:51:37;;;;;;;29.02;6.38;;;6.90;99.90;;;;;;5035112;28;20034;-58
2024/01/25 00:54:03;;;;;;;31.10;5.72;;;6.90;99.90;;;;;;5035716;28;20038;-58
2024/01/25 00:56:30;;;;;;;35.45;6.07;;;6.90;99.90;;;;;;5035998;28;20045;-59
2024/01/25 00:58:57;;;;;;;38.05;6.38;;;6.90;99.90;;;;;;5035686;28;20037;-59
2024/01/25 01:01:23;;;;;;;29.30;5.70;;;6.90;99.90;;;;;;5036068;28;20034;-57
2024/01/25 01:03:52;;;;;;;31.98;6.15;;;6.80;99.90;;;;;;5035679;28;20076;-58
2024/01/25 01:06:20;;;;;;;29.83;6.68;;;6.80;99.90;;;;;;5035649;28;20046;-58
2024/01/25 01:08:47;;;;;;;30.15;6.10;;;6.70;99.90;;;;;;5035781;28;20497;-59
2024/01/25 01:11:14;;;;;;;24.55;5.82;;;6.70;99.90;;;;;;5035747;28;20391;-59
2024/01/25 01:13:40;;;;;;;32.40;5.82;;;6.60;99.90;;;;;;5035042;28;20143;-59
2024/01/25 01:16:07;;;;;;;27.38;5.63;;;6.60;99.90;;;;;;5035930;28;20067;-58
2024/01/25 01:18:34;;;;;;;37.95;6.38;;;6.60;99.90;;;;;;5035619;28;20497;-59
2024/01/25 01:21:01;;;;;;;32.90;7.18;;;6.50;99.90;;;;;;5035198;28;20044;-59
2024/01/25 01:23:28;;;;;;;29.40;5.95;;;6.40;99.90;;;;;;5035190;28;20100;-58
2024/01/25 01:25:55;;;;;;;30.00;6.40;;;6.50;99.90;;;;;;5034928;28;20046;-58
2024/01/25 01:28:21;;;;;;;29.95;5.95;;;6.40;99.90;;;;;;5034232;28;20493;-58
2024/01/25 01:30:48;;;;;;;34.42;6.50;;;6.40;99.90;;;;;;5035568;28;20490;-59
2024/01/25 01:33:16;;;;;;;30.25;6.43;;;6.40;99.90;;;;;;5035492;28;20041;-59
2024/01/25 01:35:43;;;;;;;28.35;6.25;;;6.30;99.90;;;;;;5034961;28;20063;-58
2024/01/25 01:38:10;;;;;;;27.70;5.97;;;6.30;99.90;;;;;;5034957;28;20041;-58
2024/01/25 01:40:37;;;;;;;24.80;5.78;;;6.30;99.90;;;;;;5035401;28;20383;-57
2024/01/25 01:43:04;;;;;;;32.63;6.70;;;6.20;99.90;;;;;;5034951;28;20037;-57
2024/01/25 01:45:30;;;;;;;27.10;5.88;;;6.20;99.90;;;;;;5034820;28;20045;-58
2024/01/25 01:47:57;;;;;;;24.38;6.28;;;6.20;99.90;;;;;;5034725;28;20442;-58
2024/01/25 01:50:25;;;;;;;26.08;5.72;;;6.10;99.90;;;;;;5034493;28;20041;-58
2024/01/25 01:52:52;;;;;;;24.00;5.38;;;6.10;99.90;;;;;;5035169;28;20045;-58
2024/01/25 01:55:18;;;;;;;27.05;5.45;;;6.10;99.90;;;;;;5034392;28;20041;-58
2024/01/25 01:57:45;;;;;;;23.67;5.78;;;6.10;99.90;;;;;;5034819;28;20064;-58
2024/01/25 02:00:12;;;;;;;22.25;5.60;;;6.00;99.90;;;;;;5034738;28;20068;-59
2024/01/25 02:02:39;;;;;;;31.02;5.65;;;6.00;99.90;;;;;;5034511;28;20402;-58
2024/01/25 02:05:06;;;;;;;25.83;6.25;;;6.00;99.90;;;;;;5034822;28;20072;-59
2024/01/25 02:07:33;;;;;;;23.58;5.30;;;5.90;99.90;;;;;;5034603;28;20053;-58
2024/01/25 02:09:59;;;;;;;26.55;5.80;;;5.90;99.90;;;;;;5033621;28;20540;-59
2024/01/25 02:12:26;;;;;;;23.48;6.47;;;5.90;99.90;;;;;;5034324;28;20045;-59
2024/01/25 02:14:53;;;;;;;25.48;5.47;;;5.90;99.90;;;;;;5033899;28;20054;-59
2024/01/25 02:17:20;;;;;;;27.30;5.53;;;5.90;99.90;;;;;;5034463;28;20045;-58
2024/01/25 02:19:47;;;;;;;27.52;5.95;;;5.80;99.90;;;;;;5034517;28;20037;-59
2024/01/25 02:22:13;;;;;;;22.65;5.25;;;5.80;99.90;;;;;;5034488;28;20044;-59
2024/01/25 02:24:40;;;;;;;24.60;6.18;;;5.80;99.90;;;;;;5034216;28;20049;-59
2024/01/25 02:27:07;;;;;;;24.25;5.68;;;5.80;99.90;;;;;;5034398;28;20475;-59
2024/01/25 02:29:34;;;;;;;31.67;5.97;;;5.80;99.90;;;;;;5034223;28;20048;-57
2024/01/25 02:32:01;;;;;;;27.60;6.03;;;5.70;99.90;;;;;;5032927;28;20045;-58
2024/01/25 02:34:27;;;;;;;24.27;5.40;;;5.70;99.90;;;;;;5034053;28;20045;-58
2024/01/25 02:36:54;;;;;;;26.33;5.75;;;5.70;99.90;;;;;;5034297;28;20470;-59
2024/01/25 02:39:21;;;;;;;25.50;5.93;;;5.70;99.90;;;;;;5033724;28;20037;-59
2024/01/25 02:41:48;;;;;;;28.88;5.07;;;5.70;99.90;;;;;;5034030;28;20042;-58
2024/01/25 02:44:15;;;;;;;24.70;5.38;;;5.60;99.90;;;;;;5033992;28;20045;-59
2024/01/25 02:46:44;;;;;;;22.60;5.30;;;5.60;99.90;;;;;;5033602;28;20486;-59
2024/01/25 02:49:11;;;;;;;25.75;5.07;;;5.60;99.90;;;;;;5033347;28;20064;-59
2024/01/25 02:51:38;;;;;;;29.90;6.72;;;5.60;99.90;;;;;;5033582;28;20156;-59
2024/01/25 02:54:05;;;;;;;21.75;4.65;;;5.60;99.90;;;;;;5033303;28;20041;-58
2024/01/25 02:56:34;;;;;;;31.25;7.40;;;5.60;99.90;;;;;;5033914;28;20115;-58
2024/01/25 02:59:01;;;;;;;26.48;6.03;;;5.60;99.90;;;;;;5033448;28;20037;-59
2024/01/25 03:01:28;;;;;;;25.58;5.40;;;5.60;99.90;;;;;;5033306;28;20191;-59
2024/01/25 03:03:55;;;;;;;22.90;4.93;;;5.60;99.90;;;;;;5033222;28;20049;-59
2024/01/25 03:06:22;;;;;;;27.08;5.55;;;5.60;99.90;;;;;;5033659;28;20033;-58
2024/01/25 03:08:49;;;;;;;24.83;5.07;;;5.60;99.90;;;;;;5033669;28;20064;-59
2024/01/25 03:11:16;;;;;;;21.92;5.25;;;5.60;99.90;;;;;;5032218;28;20103;-59
2024/01/25 03:13:42;;;;;;;26.90;5.30;;;5.60;99.90;;;;;;5033387;28;20053;-58
2024/01/25 03:16:09;;;;;;;22.40;5.20;;;5.60;99.90;;;;;;5033238;28;20072;-59
2024/01/25 03:18:36;;;;;;;22.70;5.78;;;5.60;99.90;;;;;;5033578;28;20477;-59
2024/01/25 03:21:03;;;;;;;21.40;4.90;;;5.50;99.90;;;;;;5035371;28;20426;-58
2024/01/25 03:23:30;;;;;;;22.80;5.22;;;5.50;99.90;;;;;;5039979;28;20041;-59
2024/01/25 03:25:57;;;;;;;28.67;5.28;;;5.60;99.90;;;;;;5040144;28;20399;-58
2024/01/25 03:28:24;;;;;;;22.75;5.45;;;5.60;99.90;;;;;;5040307;28;20045;-59
2024/01/25 03:30:51;;;;;;;25.05;4.68;;;5.60;99.90;;;;;;5039770;28;20068;-59
2024/01/25 03:33:17;;;;;;;21.25;5.13;;;5.60;99.90;;;;;;5039922;28;20041;-59
2024/01/25 03:35:44;;;;;;;22.25;5.18;;;5.60;99.90;;;;;;5039783;28;20046;-58
2024/01/25 03:38:13;;;;;;;22.73;4.95;;;5.70;99.90;;;;;;5039665;28;20045;-58
2024/01/25 03:40:40;;;;;;;20.23;4.60;;;5.70;99.90;;;;;;5039803;28;20045;-58
2024/01/25 03:43:08;;;;;;;22.48;4.95;;;5.80;99.90;;;;;;5039543;28;20111;-58
2024/01/25 03:45:46;;;;;;;23.25;5.00;;;5.80;99.90;;;;;;5039696;28;20105;-58
2024/01/25 03:48:13;;;;;;;24.63;5.10;;;5.80;99.90;;;;;;5040070;28;20475;-58
2024/01/25 03:50:40;;;;;;;22.25;5.45;;;5.80;99.90;;;;;;5039726;28;20387;-58
2024/01/25 03:53:07;;;;;;;22.05;5.15;;;5.80;99.90;;;;;;5038470;28;20095;-58
2024/01/25 03:55:34;;;;;;;28.23;4.85;;;5.90;99.90;;;;;;5039818;28;20048;-58
2024/01/25 03:58:00;;;;;;;19.17;4.80;;;5.90;99.90;;;;;;5040145;28;20061;-58
2024/01/25 04:00:27;;;;;;;21.42;4.80;;;5.90;99.90;;;;;;5039347;28;20117;-58
2024/01/25 04:02:54;;;;;;;20.10;4.20;;;5.80;99.90;;;;;;5039748;28;20486;-59
2024/01/25 04:05:21;;;;;;;18.27;5.28;;;5.90;99.90;;;;;;5039607;28;20463;-59
2024/01/25 04:07:48;;;;;;;24.85;4.80;;;5.80;99.90;;;;;;5039541;28;20064;-59
2024/01/25 04:10:15;;;;;;;18.58;4.68;;;5.90;99.90;;;;;;5039876;28;20041;-59
2024/01/25 04:12:42;;;;;;;25.63;4.97;;;5.90;99.90;;;;;;5039398;28;20049;-58
2024/01/25 04:15:09;;;;;;;22.63;5.38;;;6.00;99.90;;;;;;5039254;28;20500;-59
2024/01/25 04:17:36;;;;;;;21.83;4.57;;;6.00;99.90;;;;;;5039595;28;20041;-58
2024/01/25 04:20:03;;;;;;;18.95;5.05;;;6.10;99.90;;;;;;5039667;28;20095;-58
2024/01/25 04:22:30;;;;;;;25.90;4.65;;;6.20;99.90;;;;;;5039703;28;20120;-58
2024/01/25 04:24:56;;;;;;;22.05;4.60;;;6.20;99.90;;;;;;5039656;28;20048;-58
2024/01/25 04:27:23;;;;;;;28.48;5.30;;;6.20;99.90;;;;;;5039524;28;20132;-59
2024/01/25 04:29:50;;;;;;;23.35;4.50;;;6.30;99.90;;;;;;5039385;28;20397;-60
2024/01/25 04:32:17;;;;;;;23.25;5.00;;;6.30;99.90;;;;;;5038078;28;20042;-59
2024/01/25 04:34:44;;;;;;;19.35;4.63;;;6.30;99.90;;;;;;5036264;28;20044;-60
2024/01/25 04:37:11;;;;;;;21.92;5.47;;;6.40;99.90;;;;;;5036150;28;20120;-60
2024/01/25 04:39:38;;;;;;;27.15;4.68;;;6.40;99.90;;;;;;5035780;28;20045;-58
2024/01/25 04:42:04;;;;;;;23.80;5.68;;;6.50;99.90;;;;;;5035838;28;20044;-58
2024/01/25 04:44:31;;;;;;;16.20;4.53;;;6.50;99.90;;;;;;5035939;28;20045;-58
2024/01/25 04:46:58;;;;;;;21.42;4.53;;;6.60;99.90;;;;;;5036016;28;20466;-58
2024/01/25 04:49:25;;;;;;;23.30;4.85;;;6.60;99.90;;;;;;5036171;28;20065;-58
2024/01/25 04:51:52;;;;;;;24.02;5.40;;;6.70;99.90;;;;;;5035799;28;20534;-58
2024/01/25 04:54:19;;;;;;;26.05;4.65;;;6.70;99.90;;;;;;5035716;28;20041;-58
2024/01/25 04:56:46;;;;;;;23.42;4.78;;;6.80;99.90;;;;;;5035765;28;20037;-58
2024/01/25 04:59:12;;;;;;;21.98;4.90;;;6.80;99.90;;;;;;5035568;28;20046;-57
2024/01/25 05:01:39;;;;;;;31.00;5.47;;;6.90;99.90;;;;;;5035663;28;20046;-58
2024/01/25 05:04:06;;;;;;;22.02;4.97;;;6.90;99.90;;;;;;5035409;28;20045;-58
2024/01/25 05:06:33;;;;;;;29.85;5.68;;;7.00;99.90;;;;;;5035560;28;20045;-58
2024/01/25 05:09:00;;;;;;;24.52;5.18;;;7.00;99.90;;;;;;5035936;28;20501;-58
2024/01/25 05:11:27;;;;;;;29.88;6.22;;;7.10;99.90;;;;;;5035428;28;20050;-58
2024/01/25 05:13:54;;;;;;;21.48;5.18;;;7.20;99.90;;;;;;5035476;28;20050;-58
2024/01/25 05:16:21;;;;;;;27.30;5.78;;;7.20;99.90;;;;;;5035292;28;20037;-59
2024/01/25 05:18:48;;;;;;;31.25;6.07;;;7.30;99.90;;;;;;5035363;28;20073;-58
2024/01/25 05:21:15;;;;;;;28.95;6.03;;;7.30;99.90;;;;;;5035770;28;20049;-58
2024/01/25 05:23:41;;;;;;;29.55;5.20;;;7.30;99.90;;;;;;5035429;28;20053;-66
2024/01/25 05:26:08;;;;;;;23.88;5.03;;;7.40;99.90;;;;;;5035020;28;20128;-65
2024/01/25 05:28:35;;;;;;;25.52;5.13;;;7.40;99.90;;;;;;5035496;28;20041;-65
2024/01/25 05:31:02;;;;;;;25.98;4.85;;;7.50;99.90;;;;;;5034251;28;20529;-66
2024/01/25 05:33:31;;;;;;;23.50;5.25;;;7.50;99.90;;;;;;5035323;28;20045;-65
2024/01/25 05:35:59;;;;;;;27.50;5.70;;;7.60;99.90;;;;;;5035601;28;20379;-65
2024/01/25 05:38:26;;;;;;;25.98;5.55;;;7.60;99.90;;;;;;5035099;28;20069;-65
2024/01/25 05:40:53;;;;;;;26.77;5.75;;;7.60;99.90;;;;;;5034867;28;20047;-65
2024/01/25 05:43:19;;;;;;;30.55;5.32;;;7.60;99.90;;;;;;5034994;28;20042;-66
2024/01/25 05:45:47;;;;;;;24.52;5.53;;;7.70;99.90;;;;;;5033451;28;20562;-66
2024/01/25 05:48:14;;;;;;;30.05;5.93;;;7.70;99.90;;;;;;5034665;28;20060;-65
2024/01/25 05:50:40;;;;;;;29.88;6.32;;;7.70;99.90;;;;;;5035268;28;20037;-65
2024/01/25 05:53:07;;;;;;;33.13;6.72;;;7.80;99.90;;;;;;5034774;28;20057;-65
2024/01/25 05:55:34;;;;;;;39.00;7.75;;;7.90;99.90;;;;;;5034598;28;20479;-65
2024/01/25 05:58:01;;;;;;;36.13;7.20;;;7.90;99.90;;;;;;5034629;28;20096;-66
2024/01/25 06:00:28;;;;;;;39.10;7.68;;;8.00;99.90;;;;;;5034314;28;20155;-65
2024/01/25 06:02:55;;;;;;;38.30;7.80;;;8.10;99.90;;;;;;5033000;28;20466;-65
2024/01/25 06:05:22;;;;;;;38.67;8.05;;;8.20;99.90;;;;;;5034075;28;20487;-66
2024/01/25 06:07:50;;;;;;;41.33;8.77;;;8.20;99.90;;;;;;5034296;28;20042;-66
2024/01/25 06:10:17;;;;;;;42.08;8.38;;;8.20;99.90;;;;;;5034303;28;20046;-66
2024/01/25 06:12:44;;;;;;;38.47;8.05;;;8.20;99.90;;;;;;5034039;28;20548;-64
2024/01/25 06:15:11;;;;;;;34.28;7.25;;;8.20;99.90;;;;;;5033899;28;20045;-66
2024/01/25 06:17:38;;;;;;;34.75;8.07;;;8.30;99.90;;;;;;5033885;28;20096;-66
2024/01/25 06:20:05;;;;;;;31.67;8.20;;;8.30;99.90;;;;;;5034079;28;20483;-65
2024/01/25 06:22:32;;;;;;;37.38;9.13;;;8.30;99.90;;;;;;5034029;28;20038;-65
2024/01/25 06:24:59;;;;;;;35.70;8.88;;;8.40;99.90;;;;;;5033886;28;20049;-65
2024/01/25 06:27:26;;;;;;;34.95;7.40;;;8.40;99.90;;;;;;5034249;28;20053;-65
2024/01/25 06:29:53;;;;;;;29.92;6.75;;;8.40;99.90;;;;;;5034507;28;20045;-65
2024/01/25 06:32:20;;;;;;;32.85;8.13;;;8.40;99.90;;;;;;5032402;28;20050;-64
2024/01/25 06:34:53;;;;;;;30.50;7.00;;;8.50;99.90;;;;;;5034134;28;20095;-64
2024/01/25 06:37:21;;;;;;;31.45;7.22;;;8.50;99.90;;;;;;5033912;28;20038;-64
2024/01/25 06:39:48;;;;;;;30.42;7.25;;;8.50;99.90;;;;;;5034124;28;20045;-64
2024/01/25 06:42:15;;;;;;;30.80;6.75;;;8.50;99.90;;;;;;5033577;28;20123;-64
2024/01/25 06:44:42;;;;;;;26.13;6.40;;;8.50;99.90;;;;;;5033526;28;20128;-65
2024/01/25 06:47:10;;;;;;;23.00;6.70;;;8.50;99.90;;;;;;5033525;28;20052;-65
2024/01/25 06:49:36;;;;;;;31.63;6.88;;;8.60;99.90;;;;;;5033734;28;20042;-66
2024/01/25 06:52:03;;;;;;;29.08;6.00;;;8.60;99.90;;;;;;5033780;28;20069;-66
2024/01/25 06:54:31;;;;;;;22.85;5.78;;;8.60;99.90;;;;;;5033333;28;20041;-65
2024/01/25 06:56:58;;;;;;;20.80;5.25;;;8.60;99.90;;;;;;5033214;28;20123;-65
2024/01/25 06:59:25;;;;;;;16.67;5.03;;;8.60;99.90;;;;;;5033263;28;20514;-65
2024/01/25 07:01:52;;;;;;;20.00;5.32;;;8.60;99.90;;;;;;5033925;28;20041;-65
2024/01/25 07:04:20;;;;;;;19.67;4.53;;;8.70;99.90;;;;;;5033781;28;20045;-66
2024/01/25 07:06:47;;;;;;;12.07;3.33;;;8.70;99.90;;;;;;5033558;28;20041;-65
2024/01/25 07:09:14;;;;;;;17.40;4.05;;;8.70;99.90;;;;;;5033343;28;20131;-64
2024/01/25 07:11:41;;;;;;;16.77;3.50;;;8.70;99.90;;;;;;5033511;28;20049;-65
2024/01/25 07:14:09;;;;;;;15.50;4.68;;;8.70;99.90;;;;;;5033007;28;20179;-64
2024/01/25 07:16:35;;;;;;;20.40;4.38;;;8.80;99.90;;;;;;5032169;28;20045;-65
2024/01/25 07:19:03;;;;;;;10.35;3.47;;;8.80;99.90;;;;;;5033469;28;20125;-65
2024/01/25 07:21:32;;;;;;;14.68;4.28;;;8.80;99.90;;;;;;5033590;28;20076;-64
2024/01/25 07:23:59;;;;;;;16.00;3.58;;;8.80;99.90;;;;;;5033476;28;20049;-64
2024/01/25 07:26:25;;;;;;;15.45;4.22;;;8.80;99.90;;;;;;5033669;28;20064;-65
2024/01/25 07:28:57;;;;;;;13.57;3.85;;;8.80;99.90;;;;;;5033080;28;20042;-65
2024/01/25 07:31:25;;;;;;;17.90;4.43;;;8.90;99.90;;;;;;5033060;28;20076;-58
2024/01/25 07:33:51;;;;;;;18.73;4.20;;;8.90;99.90;;;;;;5033219;28;20542;-58
2024/01/25 07:36:18;;;;;;;19.05;4.97;;;8.80;99.90;;;;;;5033325;28;20053;-58
2024/01/25 07:38:46;;;;;;;17.15;4.75;;;8.90;99.90;;;;;;5032126;28;20053;-58
2024/01/25 07:41:13;;;;;;;16.50;4.20;;;8.90;99.90;;;;;;5032826;28;20049;-59
2024/01/25 07:43:40;;;;;;;17.52;3.92;;;8.90;99.90;;;;;;5032826;28;20104;-58
2024/01/25 07:46:07;;;;;;;13.45;3.50;;;8.90;99.90;;;;;;5033240;28;20060;-58
2024/01/25 07:48:34;;;;;;;16.30;4.40;;;8.90;99.90;;;;;;5033136;28;20037;-58
2024/01/25 07:51:01;;;;;;;14.57;3.97;;;8.90;99.90;;;;;;5032943;28;20045;-58
2024/01/25 07:53:28;;;;;;;10.45;3.92;;;8.90;99.90;;;;;;5032958;28;20089;-58
2024/01/25 07:55:55;;;;;;;11.02;3.42;;;8.90;99.90;;;;;;5033138;28;20079;-58
2024/01/25 07:58:22;;;;;;;13.38;3.53;;;8.90;99.90;;;;;;5033155;28;20038;-58
2024/01/25 08:00:49;;;;;;;11.75;3.88;;;9.00;99.90;;;;;;5031700;28;20128;-58
2024/01/25 08:03:16;;;;;;;10.57;3.05;;;8.90;99.90;;;;;;5032797;28;20159;-58
2024/01/25 08:05:44;;;;;;;10.80;3.65;;;9.00;99.90;;;;;;5031963;28;20049;-58
2024/01/25 08:08:17;;;;;;;10.02;3.08;;;9.00;99.90;;;;;;5034804;28;20398;-58
2024/01/25 08:10:45;;;;;;;8.90;3.10;;;9.00;99.90;;;;;;5037339;28;20103;-58
2024/01/25 08:13:13;;;;;;;9.40;2.47;;;9.00;99.90;;;;;;5036518;28;20053;-65
2024/01/25 08:15:40;;;;;;;6.22;2.53;;;9.00;99.90;;;;;;5036945;28;20367;-67
2024/01/25 08:18:06;;;;;;;7.22;2.17;;;9.00;99.90;;;;;;5036494;28;20475;-67
2024/01/25 08:20:33;;;;;;;7.13;2.03;;;9.00;99.90;;;;;;5036573;28;20061;-67
2024/01/25 08:23:01;;;;;;;5.88;2.03;;;9.10;99.90;;;;;;5036611;28;20041;-67
2024/01/25 08:25:27;;;;;;;6.97;1.90;;;9.10;99.90;;;;;;5036295;28;20046;-64
2024/01/25 08:27:55;;;;;;;4.38;1.30;;;9.10;99.90;;;;;;5036500;28;20041;-64
2024/01/25 08:30:21;;;;;;;6.28;1.60;;;9.10;99.90;;;;;;5036173;28;20049;-65
2024/01/25 08:32:48;;;;;;;4.65;1.65;;;9.20;99.90;;;;;;5036447;28;20046;-65
2024/01/25 08:35:15;;;;;;;4.75;1.42;;;9.20;99.90;;;;;;5034637;28;20130;-65
2024/01/25 08:37:42;;;;;;;5.60;1.50;;;9.20;99.90;;;;;;5036460;28;20120;-66
2024/01/25 08:40:10;;;;;;;3.33;1.10;;;9.30;99.90;;;;;;5036327;28;20076;-66
2024/01/25 08:42:37;;;;;;;4.78;1.83;;;9.30;99.90;;;;;;5036054;28;20048;-67
2024/01/25 08:45:05;;;;;;;4.13;1.63;;;9.30;99.90;;;;;;5036323;28;20459;-66
2024/01/25 08:47:32;;;;;;;4.22;1.73;;;9.40;99.90;;;;;;5036064;28;20057;-66
2024/01/25 08:49:59;;;;;;;5.93;2.05;;;9.40;99.90;;;;;;5035659;28;20045;-67
2024/01/25 08:52:26;;;;;;;3.80;2.10;;;9.40;99.90;;;;;;5035788;28;20072;-67
2024/01/25 08:54:53;;;;;;;7.45;2.40;;;9.50;99.90;;;;;;5035693;28;20493;-67
2024/01/25 08:57:20;;;;;;;6.68;2.65;;;9.50;99.90;;;;;;5035987;28;20038;-66
2024/01/25 08:59:47;;;;;;;5.45;2.20;;;9.50;99.90;;;;;;5035772;28;20038;-66
2024/01/25 09:02:14;;;;;;;6.32;2.35;;;9.50;99.90;;;;;;5036019;28;20038;-65
2024/01/25 09:04:43;;;;;;;4.05;2.22;;;9.50;99.90;;;;;;5034147;28;20475;-66
2024/01/25 09:07:10;;;;;;;6.55;2.63;;;9.60;99.90;;;;;;5035633;28;20482;-66
2024/01/25 09:09:37;;;;;;;5.00;2.42;;;9.60;99.90;;;;;;5034495;28;20041;-66
2024/01/25 09:12:08;;;;;;;4.10;2.10;;;9.60;99.90;;;;;;5035409;28;20129;-66
2024/01/25 09:14:36;;;;;;;4.50;2.15;;;9.60;99.90;;;;;;5035055;28;20490;-65
2024/01/25 09:17:02;;;;;;;5.45;2.10;;;9.70;99.90;;;;;;5032269;28;20045;-66
2024/01/25 09:19:29;;;;;;;5.82;2.33;;;9.70;99.90;;;;;;5035047;28;20099;-66
2024/01/25 09:21:59;;;;;;;5.22;2.00;;;9.80;99.90;;;;;;5035734;28;20038;-66
2024/01/25 09:24:26;;;;;;;4.00;2.10;;;9.80;99.90;;;;;;5035281;28;20052;-65
2024/01/25 09:26:53;;;;;;;4.72;2.00;;;9.80;99.90;;;;;;5035781;28;20045;-66
2024/01/25 09:29:20;;;;;;;5.38;1.80;;;9.90;99.90;;;;;;5035054;28;20525;-66
2024/01/25 09:31:47;;;;;;;4.85;2.13;;;10.00;99.90;;;;;;5035542;28;20053;-65
2024/01/25 09:34:14;;;;;;;8.45;2.75;;;10.00;99.90;;;;;;5035192;28;20033;-66
2024/01/25 09:36:41;;;;;;;11.68;2.42;;;10.10;99.90;;;;;;5034210;28;20060;-65
2024/01/25 09:39:08;;;;;;;6.47;3.05;;;10.20;99.90;;;;;;5034502;28;20094;-65
2024/01/25 09:41:35;;;;;;;5.15;2.47;;;10.20;99.90;;;;;;5034693;28;20561;-66
2024/01/25 09:44:02;;;;;;;6.68;2.38;;;10.30;99.90;;;;;;5035186;28;20048;-66
2024/01/25 09:46:29;;;;;;;5.60;2.63;;;10.30;99.90;;;;;;5034633;28;20045;-66
2024/01/25 09:48:56;;;;;;;6.00;2.47;;;10.40;99.90;;;;;;5034079;28;20103;-65
2024/01/25 09:51:23;;;;;;;5.00;2.45;;;10.40;99.90;;;;;;5034275;28;20047;-65
2024/01/25 09:53:50;;;;;;;6.65;2.65;;;10.40;99.90;;;;;;5033735;28;20087;-65
2024/01/25 09:56:17;;;;;;;6.95;2.60;;;10.50;99.90;;;;;;5034752;28;20041;-65
2024/01/25 09:58:45;;;;;;;7.25;3.13;;;10.50;99.90;;;;;;5034000;28;20036;-65
2024/01/25 10:01:12;;;;;;;5.88;2.38;;;10.60;99.90;;;;;;5034450;28;20034;-59
2024/01/25 10:03:40;;;;;;;7.97;2.90;;;10.60;99.90;;;;;;5034495;28;20041;-59
2024/01/25 10:06:07;;;;;;;10.25;2.90;;;10.70;99.90;;;;;;5034800;28;20459;-59
2024/01/25 10:08:34;;;;;;;8.05;2.60;;;10.70;99.90;;;;;;5034273;28;20048;-60
2024/01/25 10:11:01;;;;;;;9.52;2.80;;;10.70;99.90;;;;;;5034257;28;20397;-59
2024/01/25 10:13:28;;;;;;;7.80;2.38;;;10.70;99.90;;;;;;5034269;28;20049;-59
2024/01/25 10:15:54;;;;;;;6.55;2.58;;;10.80;99.90;;;;;;5034264;28;20514;-59
2024/01/25 10:18:21;;;;;;;6.10;2.30;;;10.90;99.90;;;;;;5034217;28;20095;-59
2024/01/25 10:20:55;;;;;;;6.50;2.25;;;10.90;99.90;;;;;;5034609;28;20047;-59
2024/01/25 10:23:25;;;;;;;10.05;2.22;;;11.00;99.90;;;;;;5034282;28;20095;-59
2024/01/25 10:25:52;;;;;;;6.72;2.05;;;11.00;99.90;;;;;;5032682;28;20140;-59
2024/01/25 10:28:19;;;;;;;9.98;1.90;;;11.10;99.90;;;;;;5034090;28;20120;-59
2024/01/25 10:30:47;;;;;;;6.40;1.92;;;11.10;99.90;;;;;;5033185;28;20128;-59
2024/01/25 10:33:14;;;;;;;6.60;1.95;;;11.10;99.90;;;;;;5034026;28;20112;-60
2024/01/25 10:35:42;;;;;;;9.40;2.40;;;11.20;99.90;;;;;;5034271;28;20037;-59
2024/01/25 10:38:09;;;;;;;6.88;1.70;;;11.20;99.90;;;;;;5032791;28;20037;-60
2024/01/25 10:40:36;;;;;;;6.70;2.03;;;11.30;99.90;;;;;;5033406;28;20095;-58
2024/01/25 10:43:03;;;;;;;6.22;1.80;;;11.30;99.90;;;;;;5033594;28;20065;-58
2024/01/25 10:45:30;;;;;;;6.30;1.70;;;11.30;99.90;;;;;;5032601;28;20095;-57
2024/01/25 10:47:57;;;;;;;8.20;1.90;;;11.40;99.90;;;;;;5033244;28;20049;-58
2024/01/25 10:50:25;;;;;;;9.10;1.65;;;11.40;99.90;;;;;;5037402;28;20043;-56
2024/01/25 10:52:52;;;;;;;8.35;2.45;;;11.50;99.90;;;;;;5033599;28;20042;-59
2024/01/25 10:55:19;;;;;;;8.32;2.08;;;11.50;99.90;;;;;;5033639;28;20098;-59
2024/01/25 10:57:47;;;;;;;6.65;1.80;;;11.50;99.90;;;;;;5033265;28;20112;-68
2024/01/25 11:00:14;;;;;;;10.60;2.97;;;11.60;99.90;;;;;;5033812;28;20046;-68
2024/01/25 11:02:41;;;;;;;6.75;1.83;;;11.60;99.90;;;;;;5033524;28;20045;-68
2024/01/25 11:05:08;;;;;;;6.85;2.35;;;11.70;99.90;;;;;;5034225;28;20474;-68
2024/01/25 11:07:35;;;;;;;9.30;2.35;;;11.60;99.90;;;;;;5034109;28;20400;-68
2024/01/25 11:10:02;;;;;;;9.75;3.03;;;11.70;99.90;;;;;;5034425;28;20407;-68
2024/01/25 11:12:29;;;;;;;10.45;3.65;;;11.70;99.90;;;;;;5033440;28;20041;-67
2024/01/25 11:14:59;;;;;;;11.75;2.80;;;11.70;99.90;;;;;;5033173;28;20502;-67
2024/01/25 11:17:26;;;;;;;12.68;3.10;;;11.80;99.90;;;;;;5033809;28;20038;-66
2024/01/25 11:19:53;;;;;;;11.35;2.72;;;11.80;99.90;;;;;;5033788;28;20471;-66
2024/01/25 11:22:21;;;;;;;11.32;2.88;;;11.90;99.90;;;;;;5033627;28;20045;-67
2024/01/25 11:24:48;;;;;;;11.10;3.25;;;12.00;99.90;;;;;;5033401;28;20037;-66
2024/01/25 11:27:15;;;;;;;12.68;3.28;;;12.00;99.90;;;;;;5033701;28;20467;-67
2024/01/25 11:29:42;;;;;;;14.02;3.05;;;12.00;99.90;;;;;;5033724;28;20038;-68
2024/01/25 11:32:10;;;;;;;11.88;3.05;;;12.00;99.90;;;;;;5033196;28;20033;-67
2024/01/25 11:34:37;;;;;;;15.23;3.17;;;12.10;99.90;;;;;;5032845;28;20095;-67
2024/01/25 11:37:04;;;;;;;11.20;2.90;;;12.10;99.90;;;;;;5033101;28;20040;-59
2024/01/25 11:39:30;;;;;;;13.00;3.17;;;12.10;99.90;;;;;;5033394;28;20042;-65
2024/01/25 11:41:57;;;;;;;15.93;3.42;;;12.10;99.90;;;;;;5033833;28;20107;-66
2024/01/25 11:44:24;;;;;;;11.82;3.03;;;12.20;99.90;;;;;;5037273;28;20042;-66
2024/01/25 11:46:51;;;;;;;12.20;2.97;;;12.20;99.90;;;;;;5037432;28;20046;-59
2024/01/25 11:49:18;;;;;;;12.05;3.40;;;12.20;99.90;;;;;;5036049;28;20053;-59
2024/01/25 11:51:45;;;;;;;14.25;3.42;;;12.20;99.90;;;;;;5037195;28;20042;-59
2024/01/25 11:54:12;;;;;;;12.70;3.10;;;12.20;99.90;;;;;;5037142;28;20429;-58
2024/01/25 11:56:40;;;;;;;11.57;3.47;;;12.30;99.90;;;;;;5035843;28;20048;-59
2024/01/25 11:59:08;;;;;;;13.60;3.67;;;12.40;99.90;;;;;;5035910;28;20048;-58
2024/01/25 12:01:35;;;;;;;13.80;3.97;;;12.40;99.90;;;;;;5037109;28;20037;-58
2024/01/25 12:04:02;;;;;;;14.50;3.30;;;12.50;99.90;;;;;;5037159;28;20037;-65
2024/01/25 12:06:29;;;;;;;13.85;3.55;;;12.50;99.90;;;;;;5035281;28;20041;-65
2024/01/25 12:08:56;;;;;;;14.15;3.45;;;12.50;99.90;;;;;;5037196;28;20095;-67
2024/01/25 12:11:24;;;;;;;11.02;3.67;;;12.60;99.90;;;;;;5036945;28;20046;-66
2024/01/25 12:13:50;;;;;;;11.13;3.47;;;12.50;99.90;;;;;;5036654;28;20494;-66
2024/01/25 12:16:18;;;;;;;13.50;3.13;;;12.50;99.90;;;;;;5036833;28;20049;-66
2024/01/25 12:18:45;;;;;;;9.18;2.90;;;12.50;99.90;;;;;;5036627;28;20152;-66
2024/01/25 12:21:12;;;;;;;12.82;3.00;;;12.50;99.90;;;;;;5036894;28;20128;-58
2024/01/25 12:23:39;;;;;;;13.77;2.67;;;12.50;99.90;;;;;;5036652;28;20491;-59
2024/01/25 12:26:06;;;;;;;7.80;2.50;;;12.40;99.90;;;;;;5036827;28;20072;-59
2024/01/25 12:28:33;;;;;;;6.93;2.80;;;12.50;99.90;;;;;;5036199;28;20505;-59
2024/01/25 12:31:00;;;;;;;9.73;3.00;;;12.50;99.90;;;;;;5036243;28;20046;-59
2024/01/25 12:33:27;;;;;;;10.80;3.28;;;12.50;99.90;;;;;;5035094;28;20199;-58
2024/01/25 12:35:55;;;;;;;12.85;3.10;;;12.50;99.90;;;;;;5036456;28;20037;-59
2024/01/25 12:38:22;;;;;;;11.35;3.58;;;12.50;99.90;;;;;;5036425;28;20096;-59
2024/01/25 12:40:50;;;;;;;12.55;2.80;;;12.50;99.90;;;;;;5036353;28;20048;-59
2024/01/25 12:43:18;;;;;;;10.25;2.70;;;12.50;99.90;;;;;;5036252;28;20479;-60